Amalia — SXMT — position and weather

sailwx.info

Track history (hours):
 
Tides and Currents Weather Stations Pressure Air Temp Water Temp Dewpoint Dewpoint Depression Visibility Wind Speed Wind Dir Waves Ship Positions

Amalia

Last reported at 2016-Apr-28 23:32 UTC. Time now 2016-Apr-30 18:45 UTC.
Position N 30°01' E 123°42'.

Length 225 m; draft 7 m.

Type: Cargo ship. MMSI: 239652000.

Date/timePositionNaut miles runAvg speedWind from/ knotsBaromVisibWave heightAir tempDewpointWater temp
2016-Apr-28 23:32N 30°01' E 123°42'5312.3
2016-Apr-28 19:14N 30°50' E 123°21'912.0
2016-Apr-28 18:29N 30°56' E 123°12'2312.0
2016-Apr-28 16:32N 31°04' E 122°47'1310.9
2016-Apr-28 15:21N 31°05' E 122°32'2910.4
2016-Apr-28 12:31N 31°15' E 121°59'1414.6
2016-Apr-28 11:33N 31°19' E 121°44'1211.9
2016-Apr-28 10:33N 31°25' E 121°32'1111.0
2016-Apr-28 09:34N 31°32' E 121°22'1313.1
2016-Apr-28 08:33N 31°41' E 121°11'5711.4
2016-Apr-28 03:33N 31°57' E 120°06'1512.9
2016-Apr-28 02:23N 32°08' E 119°55'  
2016-Apr-23 03:05N 32°09' E 119°54'5 8.6
2016-Apr-23 02:32N 32°05' E 119°56'1 0.4
2016-Apr-23 00:29N 32°04' E 119°56'0 0.0
2016-Apr-22 18:23N 32°04' E 119°56'0 0.0
2016-Apr-22 12:23N 32°04' E 119°56'0 0.0
2016-Apr-22 06:26N 32°04' E 119°56'1 0.9
2016-Apr-22 05:33N 32°03' E 119°56'9 8.6
2016-Apr-22 04:29N 31°57' E 120°05'8 7.6
2016-Apr-22 03:30N 31°56' E 120°13'7 7.5
2016-Apr-22 02:32N 31°59' E 120°21'8 7.8
2016-Apr-22 01:33N 32°02' E 120°29'16 8.1
2016-Apr-21 23:31N 32°00' E 120°48'9 9.2
2016-Apr-21 22:33N 31°52' E 120°53'8 8.4
2016-Apr-21 21:33N 31°47' E 121°01'10 9.6
2016-Apr-21 20:33N 31°41' E 121°10'1010.5
2016-Apr-21 19:34N 31°34' E 121°19'1110.9
2016-Apr-21 18:33N 31°27' E 121°29'8 8.3
2016-Apr-21 17:33N 31°22' E 121°37'9 9.2
2016-Apr-21 16:33N 31°18' E 121°46'1010.0
2016-Apr-21 15:33N 31°15' E 121°57'1010.1
2016-Apr-21 14:33N 31°12' E 122°09'51 2.1
2016-Apr-20 14:13N 30°48' E 123°01'6713.1
2016-Apr-20 09:08N 29°44' E 122°43'813.5
2016-Apr-20 08:33N 29°39' E 122°37'1110.8
2016-Apr-20 07:33N 29°42' E 122°25'1110.9
2016-Apr-20 06:33N 29°48' E 122°15'1211.5
2016-Apr-20 05:33N 29°55' E 122°04'7 7.4
2016-Apr-20 04:33N 30°01' E 121°59'0 0.0
2016-Apr-19 07:16N 30°02' E 121°59'0 0.0
2016-Apr-19 04:04N 30°02' E 121°59'0 0.0
2016-Apr-19 03:28N 30°02' E 121°59'0 0.0
2016-Apr-19 02:25N 30°02' E 121°59'0 0.0
2016-Apr-19 00:28N 30°02' E 121°59'  
Track history (hours):
 
Tides and Currents Weather Stations Pressure Air Temp Water Temp Dewpoint Dewpoint Depression Visibility Wind Speed Wind Dir Waves Ship Positions

Amalia

Last reported at 2016-Apr-28 23:32 UTC. Time now 2016-Apr-30 18:45 UTC.
Position N 30°01' E 123°42'.

Length 225 m; draft 7 m.

Type: Cargo ship. MMSI: 239652000.

Date/timePositionNaut miles runAvg speedWind from/ knotsBaromVisibWave heightAir tempDewpointWater temp
2016-Apr-28 23:32N 30°01' E 123°42'5312.3
2016-Apr-28 19:14N 30°50' E 123°21'912.0
2016-Apr-28 18:29N 30°56' E 123°12'2312.0
2016-Apr-28 16:32N 31°04' E 122°47'1310.9
2016-Apr-28 15:21N 31°05' E 122°32'2910.4
2016-Apr-28 12:31N 31°15' E 121°59'1414.6
2016-Apr-28 11:33N 31°19' E 121°44'1211.9
2016-Apr-28 10:33N 31°25' E 121°32'1111.0
2016-Apr-28 09:34N 31°32' E 121°22'1313.1
2016-Apr-28 08:33N 31°41' E 121°11'5711.4
2016-Apr-28 03:33N 31°57' E 120°06'1512.9
2016-Apr-28 02:23N 32°08' E 119°55'  
2016-Apr-23 03:05N 32°09' E 119°54'5 8.6
2016-Apr-23 02:32N 32°05' E 119°56'1 0.4
2016-Apr-23 00:29N 32°04' E 119°56'0 0.0
2016-Apr-22 18:23N 32°04' E 119°56'0 0.0
2016-Apr-22 12:23N 32°04' E 119°56'0 0.0
2016-Apr-22 06:26N 32°04' E 119°56'1 0.9
2016-Apr-22 05:33N 32°03' E 119°56'9 8.6
2016-Apr-22 04:29N 31°57' E 120°05'8 7.6
2016-Apr-22 03:30N 31°56' E 120°13'7 7.5
2016-Apr-22 02:32N 31°59' E 120°21'8 7.8
2016-Apr-22 01:33N 32°02' E 120°29'16 8.1
2016-Apr-21 23:31N 32°00' E 120°48'9 9.2
2016-Apr-21 22:33N 31°52' E 120°53'8 8.4
2016-Apr-21 21:33N 31°47' E 121°01'10 9.6
2016-Apr-21 20:33N 31°41' E 121°10'1010.5
2016-Apr-21 19:34N 31°34' E 121°19'1110.9
2016-Apr-21 18:33N 31°27' E 121°29'8 8.3
2016-Apr-21 17:33N 31°22' E 121°37'9 9.2
2016-Apr-21 16:33N 31°18' E 121°46'1010.0
2016-Apr-21 15:33N 31°15' E 121°57'1010.1
2016-Apr-21 14:33N 31°12' E 122°09'51 2.1
2016-Apr-20 14:13N 30°48' E 123°01'6713.1
2016-Apr-20 09:08N 29°44' E 122°43'813.5
2016-Apr-20 08:33N 29°39' E 122°37'1110.8
2016-Apr-20 07:33N 29°42' E 122°25'1110.9
2016-Apr-20 06:33N 29°48' E 122°15'1211.5
2016-Apr-20 05:33N 29°55' E 122°04'7 7.4
2016-Apr-20 04:33N 30°01' E 121°59'0 0.0
2016-Apr-19 07:16N 30°02' E 121°59'0 0.0
2016-Apr-19 04:04N 30°02' E 121°59'0 0.0
2016-Apr-19 03:28N 30°02' E 121°59'0 0.0
2016-Apr-19 02:25N 30°02' E 121°59'0 0.0
2016-Apr-19 00:28N 30°02' E 121°59'  

Dump ship's entire track history